createdAt,value
2017-05-19T00:01:24.500Z,16.90
2017-05-19T00:03:52.052Z,17.00
2017-05-19T00:06:20.001Z,16.80
2017-05-19T00:08:47.978Z,17.10
2017-05-19T00:11:15.928Z,17.10
2017-05-19T00:13:44.008Z,16.90
2017-05-19T00:17:50.895Z,17.00
2017-05-19T00:20:18.468Z,16.70
2017-05-19T00:22:46.434Z,16.70
2017-05-19T00:25:14.395Z,16.70
2017-05-19T00:27:42.445Z,16.80
2017-05-19T00:30:10.012Z,16.80
2017-05-19T00:35:45.069Z,16.70
2017-05-19T00:38:13.021Z,16.80
2017-05-19T00:43:53.706Z,16.80
2017-05-19T00:46:21.649Z,16.60
2017-05-19T00:48:49.588Z,16.70
2017-05-19T00:51:17.560Z,16.70
2017-05-19T00:53:45.608Z,16.80
2017-05-19T00:56:13.541Z,16.70
2017-05-19T00:58:41.511Z,16.70
2017-05-19T01:01:09.463Z,16.80
2017-05-19T01:03:37.419Z,16.80
2017-05-19T01:06:05.392Z,16.70
2017-05-19T01:08:32.940Z,16.80
2017-05-19T01:11:00.882Z,16.80
2017-05-19T01:13:28.849Z,16.90
2017-05-19T01:15:56.792Z,16.70
2017-05-19T01:18:24.357Z,16.80
2017-05-19T01:20:52.320Z,16.70
2017-05-19T01:23:20.272Z,16.60
2017-05-19T01:25:47.844Z,16.70
2017-05-19T01:28:15.426Z,16.70
2017-05-19T01:30:43.365Z,16.90
2017-05-19T01:33:11.449Z,17.00
2017-05-19T01:35:39.420Z,16.90
2017-05-19T01:38:07.368Z,16.80
2017-05-19T01:40:34.927Z,16.90
2017-05-19T01:43:02.508Z,16.90
2017-05-19T01:45:30.055Z,17.00
2017-05-19T01:47:58.005Z,16.80
2017-05-19T01:50:25.608Z,16.80
2017-05-19T01:52:53.558Z,16.70
2017-05-19T01:55:21.509Z,16.80
2017-05-19T01:57:49.492Z,16.80
2017-05-19T02:00:17.440Z,16.70
2017-05-19T02:02:45.389Z,16.70
2017-05-19T02:05:13.371Z,16.70
2017-05-19T02:07:41.301Z,16.80
2017-05-19T02:10:09.245Z,16.90
2017-05-19T02:12:37.212Z,16.90
2017-05-19T02:15:05.157Z,16.90
2017-05-19T02:17:33.105Z,17.00
2017-05-19T02:20:01.084Z,17.10
2017-05-19T02:22:29.028Z,17.30
2017-05-19T02:24:56.576Z,17.30
2017-05-19T02:27:24.556Z,17.50
2017-05-19T02:29:52.498Z,17.50
2017-05-19T02:32:20.453Z,17.40
2017-05-19T02:34:48.027Z,17.50
2017-05-19T02:37:15.572Z,17.40
2017-05-19T02:39:43.520Z,17.20
2017-05-19T02:42:11.488Z,17.10
2017-05-19T02:44:39.443Z,17.20
2017-05-19T02:47:07.388Z,17.20
2017-05-19T02:49:35.359Z,17.10
2017-05-19T02:52:02.912Z,17.20
2017-05-19T02:54:30.860Z,17.10
2017-05-19T02:56:58.440Z,17.20
2017-05-19T02:59:26.384Z,17.00
2017-05-19T03:01:54.335Z,17.10
2017-05-19T03:04:22.309Z,17.10
2017-05-19T03:06:50.256Z,17.10
2017-05-19T03:09:17.805Z,17.10
2017-05-19T03:11:45.788Z,17.30
2017-05-19T03:14:13.331Z,17.30
2017-05-19T03:16:41.277Z,17.30
2017-05-19T03:19:08.852Z,17.40
2017-05-19T03:21:36.805Z,17.30
2017-05-19T03:24:04.742Z,17.00
2017-05-19T03:26:32.316Z,17.00
2017-05-19T03:29:00.260Z,16.80
2017-05-19T03:31:28.205Z,16.80
2017-05-19T03:33:56.186Z,16.80
2017-05-19T03:36:23.740Z,16.80
2017-05-19T03:38:51.688Z,16.90
2017-05-19T03:41:19.660Z,17.00
2017-05-19T03:43:47.222Z,17.00
2017-05-19T03:46:15.164Z,17.00
2017-05-19T03:48:43.136Z,16.90
2017-05-19T03:51:11.082Z,16.90
2017-05-19T03:53:39.032Z,16.80
2017-05-19T03:56:06.999Z,16.80
2017-05-19T03:58:34.548Z,16.80
2017-05-19T04:01:02.100Z,17.00
2017-05-19T04:03:30.067Z,16.90
2017-05-19T04:05:58.008Z,16.90
2017-05-19T04:08:25.553Z,16.90
2017-05-19T04:10:53.535Z,17.00
2017-05-19T04:13:21.486Z,16.90
2017-05-19T04:15:49.436Z,16.80
2017-05-19T04:18:17.405Z,16.90
2017-05-19T04:20:45.352Z,16.90
2017-05-19T04:23:13.296Z,16.70
2017-05-19T04:25:41.272Z,16.70
2017-05-19T04:28:08.823Z,16.70
2017-05-19T04:30:36.767Z,16.70
2017-05-19T04:33:04.341Z,16.70
2017-05-19T04:35:32.288Z,16.70
2017-05-19T04:38:00.232Z,16.80
2017-05-19T04:40:28.200Z,16.80
2017-05-19T04:42:56.164Z,16.80
2017-05-19T04:45:24.104Z,16.90
2017-05-19T04:47:52.072Z,16.90
2017-05-19T04:50:20.012Z,17.00
2017-05-19T04:52:47.961Z,17.20
2017-05-19T04:55:15.928Z,17.20
2017-05-19T04:57:43.479Z,17.30
2017-05-19T05:00:11.415Z,17.40
2017-05-19T05:02:39.385Z,17.60
2017-05-19T05:05:07.334Z,17.60
2017-05-19T05:07:35.276Z,17.50
2017-05-19T05:10:03.239Z,17.60
2017-05-19T05:12:31.187Z,17.70
2017-05-19T05:14:59.136Z,17.90
2017-05-19T05:17:26.711Z,18.00
2017-05-19T05:19:54.671Z,17.70
2017-05-19T05:22:22.613Z,17.60
2017-05-19T05:24:50.580Z,17.60
2017-05-19T05:27:18.133Z,17.60
2017-05-19T05:29:46.172Z,17.70
2017-05-19T05:32:14.132Z,17.60
2017-05-19T05:34:42.089Z,17.90
2017-05-19T05:37:10.036Z,17.90
2017-05-19T05:39:38.007Z,17.80
2017-05-19T05:42:05.956Z,17.80
2017-05-19T05:44:33.513Z,17.80
2017-05-19T05:47:01.084Z,17.80
2017-05-19T05:49:29.028Z,17.90
2017-05-19T05:51:56.976Z,17.90
2017-05-19T05:54:24.956Z,17.90
2017-05-19T05:56:52.901Z,18.00
2017-05-19T05:59:20.451Z,18.00
2017-05-19T06:01:48.028Z,18.10
2017-05-19T06:04:15.978Z,18.30
2017-05-19T06:06:43.920Z,18.50
2017-05-19T06:09:11.890Z,18.80
2017-05-19T06:11:39.446Z,18.90
2017-05-19T06:14:07.391Z,18.80
2017-05-19T06:16:35.360Z,18.90
2017-05-19T06:19:03.313Z,19.00
2017-05-19T06:21:31.261Z,19.30
2017-05-19T06:23:59.224Z,19.20
2017-05-19T06:26:27.163Z,19.10
2017-05-19T06:28:55.112Z,19.10
2017-05-19T06:31:23.080Z,18.90
2017-05-19T06:33:51.030Z,18.90
2017-05-19T06:36:18.575Z,18.90
2017-05-19T06:38:46.549Z,19.00
2017-05-19T06:41:14.498Z,18.90
2017-05-19T06:43:42.440Z,19.10
2017-05-19T06:46:10.406Z,19.00
2017-05-19T06:48:38.375Z,18.60
2017-05-19T06:51:06.316Z,18.40
2017-05-19T06:53:34.305Z,18.50
2017-05-19T06:56:02.250Z,18.50
2017-05-19T06:58:30.192Z,18.60
2017-05-19T07:00:57.763Z,18.60
2017-05-19T07:03:25.708Z,18.70
2017-05-19T07:05:53.652Z,18.60
2017-05-19T07:08:21.277Z,18.60
2017-05-19T07:10:49.226Z,18.50
2017-05-19T07:13:17.189Z,18.40
2017-05-19T07:15:45.152Z,18.30
2017-05-19T07:18:13.097Z,18.50
2017-05-19T07:20:41.053Z,18.30
2017-05-19T07:23:09.133Z,18.40
2017-05-19T07:25:37.085Z,18.30
2017-05-19T07:28:05.030Z,18.30
2017-05-19T07:30:32.595Z,18.30
2017-05-19T07:33:00.167Z,18.30
2017-05-19T07:35:28.112Z,18.20
2017-05-19T07:37:56.094Z,18.30
2017-05-19T07:40:23.673Z,18.30
2017-05-19T07:42:51.642Z,18.10
2017-05-19T07:45:19.209Z,18.10
2017-05-19T07:47:47.176Z,18.10
2017-05-19T07:50:14.725Z,18.10
2017-05-19T07:52:42.697Z,18.20
2017-05-19T07:55:10.244Z,18.20
2017-05-19T07:57:38.212Z,17.70
2017-05-19T08:00:06.167Z,17.30
2017-05-19T08:02:34.113Z,17.00
2017-05-19T08:05:02.116Z,16.90
2017-05-19T08:07:30.072Z,16.90
2017-05-19T08:09:58.007Z,17.00
2017-05-19T08:12:25.943Z,16.70
2017-05-19T08:14:53.519Z,16.70
2017-05-19T08:17:21.461Z,16.50
2017-05-19T08:19:49.420Z,16.40
2017-05-19T08:22:17.382Z,16.40
2017-05-19T08:24:45.339Z,16.30
2017-05-19T08:27:13.296Z,16.30
2017-05-19T08:29:40.847Z,16.30
2017-05-19T08:32:08.407Z,16.20
2017-05-19T08:34:36.351Z,16.10
2017-05-19T08:37:04.284Z,15.90
2017-05-19T08:39:32.252Z,15.70
2017-05-19T08:42:00.198Z,15.50
2017-05-19T08:44:28.136Z,15.60
2017-05-19T08:46:55.712Z,15.60
2017-05-19T08:49:23.653Z,15.70
2017-05-19T08:51:51.617Z,15.70
2017-05-19T08:54:19.687Z,15.70
2017-05-19T08:56:47.636Z,15.70
2017-05-19T08:59:15.638Z,15.80
2017-05-19T09:01:43.593Z,15.90
2017-05-19T09:04:11.255Z,15.90
2017-05-19T09:06:39.353Z,16.50
2017-05-19T09:09:07.446Z,16.70
2017-05-19T09:11:35.566Z,16.90
2017-05-19T09:14:03.576Z,16.90
2017-05-19T09:16:31.549Z,16.90
2017-05-19T09:18:59.541Z,16.80
2017-05-19T09:21:27.610Z,16.80
2017-05-19T09:23:55.612Z,16.90
2017-05-19T09:26:23.560Z,16.90
2017-05-19T09:28:51.108Z,16.90
2017-05-19T09:31:19.056Z,17.00
2017-05-19T09:33:47.026Z,16.90
2017-05-19T09:36:14.973Z,16.60
2017-05-19T09:38:42.917Z,16.30
2017-05-19T09:41:10.489Z,16.30
2017-05-19T09:43:38.432Z,16.10
2017-05-19T09:46:06.377Z,16.10
2017-05-19T09:48:33.945Z,16.10
2017-05-19T09:51:01.493Z,15.90
2017-05-19T09:53:29.439Z,15.60
2017-05-19T09:55:57.410Z,15.50
2017-05-19T09:58:25.318Z,15.10
2017-05-19T10:00:53.305Z,14.90
2017-05-19T10:03:21.281Z,14.70
2017-05-19T10:05:49.228Z,14.50
2017-05-19T10:08:16.781Z,14.50
2017-05-19T10:10:44.748Z,14.00
2017-05-19T10:13:12.701Z,13.90
2017-05-19T10:15:40.649Z,13.80
2017-05-19T10:18:08.229Z,13.80
2017-05-19T10:20:36.168Z,13.70
2017-05-19T10:23:04.123Z,13.60
2017-05-19T10:25:31.720Z,13.60
2017-05-19T10:27:59.660Z,13.60
2017-05-19T10:30:27.587Z,13.50
2017-05-19T10:32:55.940Z,13.50
2017-05-19T10:35:23.884Z,13.60
2017-05-19T10:37:51.437Z,13.60
2017-05-19T10:40:19.421Z,13.30
2017-05-19T10:42:47.375Z,13.30
2017-05-19T10:45:15.312Z,13.40
2017-05-19T10:47:43.293Z,13.40
2017-05-19T10:50:11.240Z,13.40
2017-05-19T10:52:39.188Z,13.40
2017-05-19T10:55:07.156Z,13.30
2017-05-19T10:57:35.099Z,13.40
2017-05-19T11:00:03.057Z,13.30
2017-05-19T11:02:31.037Z,13.40
2017-05-19T11:04:58.985Z,13.40
2017-05-19T11:07:26.528Z,13.40
2017-05-19T11:09:54.109Z,13.20
2017-05-19T11:12:22.048Z,13.20
2017-05-19T11:14:49.996Z,13.20
2017-05-19T11:17:17.979Z,13.10
2017-05-19T11:19:45.533Z,13.10
2017-05-19T11:22:13.479Z,13.10
2017-05-19T11:24:41.453Z,13.20
2017-05-19T11:27:09.408Z,13.10
2017-05-19T11:29:37.348Z,13.10
2017-05-19T11:32:05.325Z,13.10
2017-05-19T11:34:33.280Z,13.10
2017-05-19T11:37:01.484Z,13.00
2017-05-19T11:39:29.459Z,12.90
2017-05-19T11:41:57.417Z,12.80
2017-05-19T11:44:25.369Z,12.80
2017-05-19T11:46:53.361Z,12.70
2017-05-19T11:49:20.913Z,12.70
2017-05-19T11:51:48.917Z,12.80
2017-05-19T11:54:16.874Z,12.80
2017-05-19T11:56:44.826Z,12.80
2017-05-19T11:59:12.790Z,12.90
2017-05-19T12:01:40.365Z,12.90
2017-05-19T12:04:08.341Z,12.70
2017-05-19T12:06:35.906Z,12.70
2017-05-19T12:09:03.869Z,12.60
2017-05-19T12:11:40.525Z,12.60
2017-05-19T12:14:08.076Z,12.60
2017-05-19T12:16:36.031Z,12.50
2017-05-19T12:19:03.997Z,12.60
2017-05-19T12:21:31.954Z,12.50
2017-05-19T12:23:59.500Z,12.50
2017-05-19T12:26:27.477Z,12.50
2017-05-19T12:28:55.425Z,12.50
2017-05-19T12:31:22.971Z,12.50
2017-05-19T12:33:50.555Z,12.50
2017-05-19T12:36:18.500Z,12.60
2017-05-19T12:38:46.063Z,12.60
2017-05-19T12:41:14.030Z,12.60
2017-05-19T12:43:41.976Z,12.60
2017-05-19T12:46:09.924Z,12.50
2017-05-19T12:48:37.888Z,12.50
2017-05-19T12:51:05.452Z,12.50
2017-05-19T12:53:33.000Z,12.40
2017-05-19T12:56:00.581Z,12.40
2017-05-19T12:58:28.523Z,12.50
2017-05-19T13:00:56.472Z,12.50
2017-05-19T13:03:24.452Z,12.40
2017-05-19T13:05:52.396Z,12.40
2017-05-19T13:08:20.343Z,12.50
2017-05-19T13:10:48.304Z,12.60
2017-05-19T13:13:16.258Z,12.50
2017-05-19T13:15:44.209Z,12.60
2017-05-19T13:18:12.190Z,12.50
2017-05-19T13:20:40.130Z,12.50
2017-05-19T13:23:08.077Z,12.50
2017-05-19T13:25:35.635Z,12.50
2017-05-19T13:28:03.185Z,12.50
2017-05-19T13:30:31.120Z,12.20
2017-05-19T13:32:59.093Z,12.20
2017-05-19T13:35:27.040Z,12.20
2017-05-19T13:37:54.999Z,12.20
2017-05-19T13:40:22.965Z,12.20
2017-05-19T13:42:50.917Z,12.20
2017-05-19T13:45:18.863Z,12.20
2017-05-19T13:47:46.827Z,12.30
2017-05-19T13:50:14.776Z,12.20
2017-05-19T13:52:42.720Z,12.30
2017-05-19T13:55:10.697Z,12.30
2017-05-19T13:57:38.643Z,12.20
2017-05-19T14:00:06.622Z,12.20
2017-05-19T14:02:34.592Z,12.20
2017-05-19T14:05:02.540Z,12.20
2017-05-19T14:07:30.477Z,12.10
2017-05-19T14:09:58.439Z,12.20
2017-05-19T14:12:26.349Z,12.20
2017-05-19T14:14:54.341Z,12.20
2017-05-19T14:17:22.319Z,12.20
2017-05-19T14:19:50.273Z,12.20
2017-05-19T14:30:23.818Z,12.20
2017-05-19T14:57:00.951Z,12.40
2017-05-19T15:05:11.368Z,12.40
2017-05-19T15:24:32.301Z,12.60
2017-05-19T15:35:25.805Z,12.60
2017-05-19T15:37:53.950Z,12.50
2017-05-19T15:53:08.325Z,11.80
2017-05-19T16:00:45.179Z,11.80
2017-05-19T16:03:15.020Z,11.60
2017-05-19T16:05:44.673Z,11.70
2017-05-19T16:13:17.219Z,11.80
2017-05-19T16:20:50.139Z,11.90
2017-05-19T16:23:19.884Z,11.90
2017-05-19T16:25:48.230Z,11.90
2017-05-19T16:28:17.102Z,11.80
2017-05-19T16:33:21.772Z,11.80
2017-05-19T16:51:13.404Z,11.80
2017-05-19T16:58:58.918Z,11.70
2017-05-19T17:04:00.399Z,11.70
2017-05-19T17:06:28.876Z,11.90
2017-05-19T17:08:57.350Z,11.90
2017-05-19T17:11:29.388Z,11.90
2017-05-19T17:13:57.903Z,11.90
2017-05-19T17:16:25.936Z,11.80
2017-05-19T17:18:53.864Z,11.90
2017-05-19T17:21:22.048Z,11.80
2017-05-19T17:23:51.912Z,11.80
2017-05-19T17:26:23.611Z,11.80
2017-05-19T17:28:51.996Z,11.70
2017-05-19T17:31:19.973Z,11.70
2017-05-19T17:33:48.508Z,11.70
2017-05-19T17:36:17.044Z,11.70
2017-05-19T17:38:45.039Z,11.70
2017-05-19T17:41:17.390Z,11.80
2017-05-19T17:43:45.844Z,11.70
2017-05-19T17:46:14.514Z,11.80
2017-05-19T17:53:50.068Z,11.90
2017-05-19T18:01:26.062Z,11.80
2017-05-19T18:04:00.249Z,11.70
2017-05-19T18:06:31.318Z,11.70
2017-05-19T18:27:01.324Z,12.00
2017-05-19T18:34:41.098Z,11.80
2017-05-19T18:37:10.590Z,11.70
2017-05-19T18:39:39.634Z,11.70
2017-05-19T18:44:42.811Z,11.30
2017-05-19T18:47:12.813Z,11.20
2017-05-19T18:49:47.557Z,11.20
2017-05-19T18:52:16.756Z,11.30
2017-05-19T19:05:05.307Z,11.10
2017-05-19T19:26:18.943Z,10.60
2017-05-19T19:44:46.472Z,10.50
2017-05-19T21:29:53.916Z,10.50
2017-05-19T21:40:19.893Z,10.30
2017-05-19T21:55:49.322Z,10.20
2017-05-19T22:03:24.770Z,10.20
2017-05-19T22:08:27.704Z,10.20
2017-05-19T22:10:55.691Z,10.20
2017-05-19T22:13:24.418Z,10.10
2017-05-19T22:15:52.397Z,10.10
2017-05-19T22:18:19.960Z,10.10
2017-05-19T22:20:47.809Z,10.10
2017-05-19T22:23:16.549Z,10.20
2017-05-19T22:25:44.456Z,10.20
2017-05-19T22:28:12.435Z,10.10
2017-05-19T22:30:39.993Z,10.10
2017-05-19T22:33:07.950Z,10.10
2017-05-19T22:35:35.925Z,10.10
2017-05-19T22:38:03.483Z,10.10
2017-05-19T22:40:31.456Z,10.10
2017-05-19T22:42:59.430Z,10.10
2017-05-19T22:45:27.396Z,10.00
2017-05-19T22:47:55.353Z,10.10
2017-05-19T22:50:23.345Z,10.10
2017-05-19T22:52:51.319Z,10.10
2017-05-19T22:55:18.889Z,10.10
2017-05-19T22:57:46.870Z,10.10
2017-05-19T23:00:14.828Z,10.10
2017-05-19T23:02:42.780Z,10.10
2017-05-19T23:05:10.364Z,10.20
2017-05-19T23:07:38.318Z,10.10
2017-05-19T23:10:06.277Z,10.10
2017-05-19T23:12:34.254Z,10.00
2017-05-19T23:15:02.205Z,10.00
2017-05-19T23:17:30.145Z,10.00
2017-05-19T23:19:58.120Z,10.00
2017-05-19T23:22:26.085Z,10.00
2017-05-19T23:24:54.037Z,10.00
2017-05-19T23:27:22.025Z,10.00
2017-05-19T23:29:49.997Z,10.00
2017-05-19T23:32:17.557Z,10.00
2017-05-19T23:34:45.562Z,9.90
2017-05-19T23:37:13.550Z,9.80
2017-05-19T23:39:41.497Z,9.80
2017-05-19T23:42:09.468Z,9.70
2017-05-19T23:44:37.412Z,9.60
2017-05-19T23:47:05.365Z,9.60
2017-05-19T23:49:33.335Z,9.60
2017-05-19T23:52:00.897Z,9.60
2017-05-19T23:54:28.845Z,9.50
2017-05-19T23:56:56.852Z,9.30
2017-05-19T23:59:24.413Z,9.30
